createdAt,value
2022-12-15T07:51:58.415Z,18.02
2022-12-15T07:54:29.500Z,17.50
2022-12-15T07:57:00.259Z,19.17
2022-12-15T07:59:33.502Z,19.25
2022-12-15T08:02:04.647Z,17.20
2022-12-15T08:04:38.325Z,18.67
2022-12-15T08:07:14.658Z,19.08
2022-12-15T08:12:35.692Z,19.77
2022-12-15T08:15:07.395Z,18.65
2022-12-15T08:20:40.561Z,18.63
2022-12-15T08:23:13.883Z,19.13
2022-12-15T08:25:46.123Z,19.70
2022-12-15T08:28:16.935Z,17.23
2022-12-15T08:30:51.076Z,18.13
2022-12-15T08:33:21.768Z,18.17
2022-12-15T08:35:57.096Z,19.40
2022-12-15T08:38:32.023Z,18.67
2022-12-15T08:41:12.000Z,17.10
2022-12-15T08:43:48.166Z,18.55
2022-12-15T08:46:20.884Z,19.17
2022-12-15T08:48:52.958Z,18.38
2022-12-15T08:51:24.511Z,18.85
2022-12-15T08:53:58.546Z,18.20
2022-12-15T08:56:30.466Z,19.80
2022-12-15T08:59:03.176Z,19.10
2022-12-15T09:01:39.384Z,18.40
2022-12-15T09:10:25.337Z,17.95
2022-12-15T09:12:56.254Z,17.52
2022-12-15T09:15:51.885Z,17.10
2022-12-15T09:18:20.499Z,17.60
2022-12-15T09:20:52.000Z,17.63
2022-12-15T09:23:23.021Z,18.77
2022-12-15T09:26:03.103Z,18.00
2022-12-15T09:28:34.032Z,17.40
2022-12-15T09:31:11.991Z,16.77
2022-12-15T09:33:44.000Z,17.50
2022-12-15T09:36:15.962Z,17.48
2022-12-15T09:38:47.349Z,17.65
2022-12-15T09:41:28.015Z,17.98
2022-12-15T09:44:01.319Z,17.23
2022-12-15T09:46:54.208Z,18.75
2022-12-15T09:49:39.466Z,17.45
2022-12-15T09:52:14.677Z,17.40
2022-12-15T09:54:47.167Z,15.82
2022-12-15T09:57:28.567Z,17.13
2022-12-15T10:00:10.108Z,17.52
2022-12-15T10:03:07.079Z,16.70
2022-12-15T10:08:47.357Z,16.50
2022-12-15T10:11:26.634Z,17.88
2022-12-15T10:14:09.098Z,17.50
2022-12-15T10:16:55.482Z,17.88
2022-12-15T10:19:34.869Z,16.50
2022-12-15T10:22:06.028Z,16.83
2022-12-15T10:25:08.595Z,16.73
2022-12-15T10:27:41.363Z,15.77
2022-12-15T10:30:16.619Z,16.77
2022-12-15T10:32:53.711Z,16.42
2022-12-15T10:35:28.779Z,16.80
2022-12-15T10:38:02.924Z,15.95
2022-12-15T10:40:50.766Z,17.35
2022-12-15T10:43:36.585Z,18.60
2022-12-15T10:46:18.702Z,16.50
2022-12-15T10:48:52.315Z,17.08
2022-12-15T10:51:28.809Z,16.80
2022-12-15T10:54:09.609Z,16.73
2022-12-15T10:56:54.958Z,16.80
2022-12-15T10:59:28.863Z,16.60
2022-12-15T11:02:29.875Z,16.20
2022-12-15T11:05:04.232Z,15.85
2022-12-15T11:07:41.476Z,16.35
2022-12-15T11:10:20.305Z,16.80
2022-12-15T11:13:10.684Z,17.65
2022-12-15T11:15:50.885Z,17.55
2022-12-15T11:18:37.907Z,18.38
2022-12-15T16:48:43.871Z,31.75
2022-12-15T16:57:21.396Z,34.08
2022-12-15T16:59:52.215Z,35.25
2022-12-15T17:02:31.260Z,33.58
2022-12-15T17:05:06.503Z,34.35
2022-12-15T17:07:43.117Z,34.03
2022-12-15T17:10:19.825Z,36.15
2022-12-15T17:15:54.362Z,37.28
2022-12-15T17:18:27.213Z,42.13
2022-12-15T17:21:14.568Z,39.30
2022-12-15T17:23:47.525Z,42.60
2022-12-15T17:26:29.623Z,42.40
2022-12-15T17:29:06.333Z,40.03
2022-12-15T17:31:37.181Z,40.60
2022-12-15T17:34:25.709Z,41.08
2022-12-15T17:37:00.709Z,41.28
2022-12-15T17:39:32.416Z,41.90
2022-12-15T17:42:03.436Z,39.78
2022-12-15T17:44:38.626Z,41.15
2022-12-15T17:47:10.928Z,41.08
2022-12-15T17:49:41.754Z,38.13
2022-12-15T17:52:27.269Z,40.15
2022-12-15T17:54:59.686Z,40.40
2022-12-15T17:57:31.962Z,40.15
2022-12-15T18:00:03.808Z,41.05
2022-12-15T18:02:34.870Z,40.33
2022-12-15T18:05:06.012Z,40.60
2022-12-15T18:07:39.598Z,42.05
2022-12-15T18:10:27.279Z,44.28
2022-12-15T18:12:58.231Z,43.00
2022-12-15T18:15:32.838Z,43.58
2022-12-15T18:18:03.885Z,41.83
2022-12-15T18:20:37.758Z,41.80
2022-12-15T18:23:16.873Z,39.00
2022-12-15T18:25:47.875Z,40.15
2022-12-15T18:28:24.312Z,39.55
2022-12-15T18:30:57.600Z,37.90
2022-12-15T18:33:30.284Z,36.28
2022-12-15T18:36:04.206Z,36.80
2022-12-15T18:38:38.129Z,36.05
2022-12-15T18:41:18.281Z,34.05
2022-12-15T18:43:50.426Z,38.15
2022-12-15T18:46:21.310Z,35.75
2022-12-15T18:48:54.462Z,38.78
2022-12-15T18:51:26.466Z,38.28
2022-12-15T18:53:59.921Z,37.75
2022-12-15T18:56:30.652Z,38.58
2022-12-15T18:59:01.408Z,37.67
2022-12-15T19:01:32.225Z,39.10
2022-12-15T19:04:03.002Z,43.35
2022-12-15T23:29:49.647Z,35.10
2022-12-15T23:32:23.153Z,35.72
2022-12-15T23:34:57.300Z,34.00
2022-12-15T23:37:28.031Z,36.55
2022-12-15T23:39:58.785Z,36.58
2022-12-15T23:42:29.656Z,35.92
2022-12-15T23:45:04.095Z,34.97
2022-12-15T23:56:49.604Z,34.60
2022-12-15T23:59:24.166Z,35.13
